sensor_id;sensor_type;location;lat;lon;timestamp;temperature;humidity
46562;DHT22;32289;42.688;23.330;2024-03-17T00:00:23;7.10;99.90
46562;DHT22;32289;42.688;23.330;2024-03-17T00:04:04;7.00;99.90
46562;DHT22;32289;42.688;23.330;2024-03-17T00:07:45;7.00;99.90
46562;DHT22;32289;42.688;23.330;2024-03-17T00:11:26;7.00;99.90
46562;DHT22;32289;42.688;23.330;2024-03-17T00:15:07;7.10;99.90
46562;DHT22;32289;42.688;23.330;2024-03-17T00:18:48;7.00;99.90
46562;DHT22;32289;42.688;23.330;2024-03-17T00:22:28;7.00;99.90
46562;DHT22;32289;42.688;23.330;2024-03-17T00:26:09;7.00;99.90
46562;DHT22;32289;42.688;23.330;2024-03-17T00:29:50;6.90;99.90
46562;DHT22;32289;42.688;23.330;2024-03-17T00:33:31;6.80;99.90
46562;DHT22;32289;42.688;23.330;2024-03-17T00:37:11;6.80;99.90
46562;DHT22;32289;42.688;23.330;2024-03-17T00:40:52;6.70;99.90
46562;DHT22;32289;42.688;23.330;2024-03-17T00:44:33;6.70;99.90
46562;DHT22;32289;42.688;23.330;2024-03-17T00:48:14;6.70;99.90
46562;DHT22;32289;42.688;23.330;2024-03-17T00:51:54;6.70;99.90
46562;DHT22;32289;42.688;23.330;2024-03-17T00:55:35;6.60;99.90
46562;DHT22;32289;42.688;23.330;2024-03-17T00:59:15;6.50;99.90
46562;DHT22;32289;42.688;23.330;2024-03-17T01:02:56;6.50;99.90
46562;DHT22;32289;42.688;23.330;2024-03-17T01:06:37;6.40;99.90
46562;DHT22;32289;42.688;23.330;2024-03-17T01:10:21;6.40;99.90
46562;DHT22;32289;42.688;23.330;2024-03-17T01:14:01;6.40;99.90
46562;DHT22;32289;42.688;23.330;2024-03-17T01:17:42;6.40;99.90
46562;DHT22;32289;42.688;23.330;2024-03-17T01:21:23;6.40;99.90
46562;DHT22;32289;42.688;23.330;2024-03-17T01:25:04;6.40;99.90
46562;DHT22;32289;42.688;23.330;2024-03-17T01:28:45;6.30;99.90
46562;DHT22;32289;42.688;23.330;2024-03-17T01:32:25;6.30;99.90
46562;DHT22;32289;42.688;23.330;2024-03-17T01:36:06;6.40;99.90
46562;DHT22;32289;42.688;23.330;2024-03-17T01:39:47;6.30;99.90
46562;DHT22;32289;42.688;23.330;2024-03-17T01:43:30;6.30;99.90
46562;DHT22;32289;42.688;23.330;2024-03-17T01:47:10;6.30;99.90
46562;DHT22;32289;42.688;23.330;2024-03-17T01:50:53;6.20;99.90
46562;DHT22;32289;42.688;23.330;2024-03-17T01:54:36;6.20;99.90
46562;DHT22;32289;42.688;23.330;2024-03-17T01:58:20;6.20;99.90
46562;DHT22;32289;42.688;23.330;2024-03-17T02:02:01;6.10;99.90
46562;DHT22;32289;42.688;23.330;2024-03-17T02:05:42;6.20;99.90
46562;DHT22;32289;42.688;23.330;2024-03-17T02:09:23;6.10;99.90
46562;DHT22;32289;42.688;23.330;2024-03-17T02:13:04;6.20;99.90
46562;DHT22;32289;42.688;23.330;2024-03-17T02:16:46;6.10;99.90
46562;DHT22;32289;42.688;23.330;2024-03-17T02:20:26;6.10;99.90
46562;DHT22;32289;42.688;23.330;2024-03-17T02:24:25;6.10;99.90
46562;DHT22;32289;42.688;23.330;2024-03-17T02:28:06;6.00;99.90
46562;DHT22;32289;42.688;23.330;2024-03-17T02:31:47;5.90;99.90
46562;DHT22;32289;42.688;23.330;2024-03-17T02:35:28;5.90;99.90
46562;DHT22;32289;42.688;23.330;2024-03-17T02:39:08;5.80;99.90
46562;DHT22;32289;42.688;23.330;2024-03-17T02:43:07;5.70;99.90
46562;DHT22;32289;42.688;23.330;2024-03-17T02:46:48;5.60;99.90
46562;DHT22;32289;42.688;23.330;2024-03-17T02:50:29;5.70;99.90
46562;DHT22;32289;42.688;23.330;2024-03-17T02:54:09;5.60;99.90
46562;DHT22;32289;42.688;23.330;2024-03-17T02:57:50;5.60;99.90
46562;DHT22;32289;42.688;23.330;2024-03-17T03:01:31;5.60;99.90
46562;DHT22;32289;42.688;23.330;2024-03-17T03:05:11;5.60;99.90
46562;DHT22;32289;42.688;23.330;2024-03-17T03:08:52;5.70;99.90
46562;DHT22;32289;42.688;23.330;2024-03-17T03:12:33;5.60;99.90
46562;DHT22;32289;42.688;23.330;2024-03-17T03:16:14;5.70;99.90
46562;DHT22;32289;42.688;23.330;2024-03-17T03:19:55;5.50;99.90
46562;DHT22;32289;42.688;23.330;2024-03-17T03:23:36;5.30;99.90
46562;DHT22;32289;42.688;23.330;2024-03-17T03:27:17;5.00;99.90
46562;DHT22;32289;42.688;23.330;2024-03-17T03:30:58;4.80;99.90
46562;DHT22;32289;42.688;23.330;2024-03-17T03:34:39;4.70;99.90
46562;DHT22;32289;42.688;23.330;2024-03-17T03:38:19;4.70;99.90
46562;DHT22;32289;42.688;23.330;2024-03-17T03:42:00;4.80;99.90
46562;DHT22;32289;42.688;23.330;2024-03-17T03:45:41;5.00;99.90
46562;DHT22;32289;42.688;23.330;2024-03-17T03:49:21;5.10;99.90
46562;DHT22;32289;42.688;23.330;2024-03-17T03:53:02;5.10;99.90
46562;DHT22;32289;42.688;23.330;2024-03-17T03:56:43;5.20;99.90
46562;DHT22;32289;42.688;23.330;2024-03-17T04:00:24;4.90;99.90
46562;DHT22;32289;42.688;23.330;2024-03-17T04:04:10;4.80;99.90
46562;DHT22;32289;42.688;23.330;2024-03-17T04:07:50;5.00;99.90
46562;DHT22;32289;42.688;23.330;2024-03-17T04:11:33;5.00;99.90
46562;DHT22;32289;42.688;23.330;2024-03-17T04:15:14;5.00;99.90
46562;DHT22;32289;42.688;23.330;2024-03-17T04:18:55;5.00;99.90
46562;DHT22;32289;42.688;23.330;2024-03-17T04:22:36;5.00;99.90
46562;DHT22;32289;42.688;23.330;2024-03-17T04:26:17;5.00;99.90
46562;DHT22;32289;42.688;23.330;2024-03-17T04:29:59;5.10;99.90
46562;DHT22;32289;42.688;23.330;2024-03-17T04:33:40;5.00;99.90
46562;DHT22;32289;42.688;23.330;2024-03-17T04:37:21;5.10;99.90
46562;DHT22;32289;42.688;23.330;2024-03-17T04:41:03;5.00;99.90
46562;DHT22;32289;42.688;23.330;2024-03-17T04:44:49;5.00;99.90
46562;DHT22;32289;42.688;23.330;2024-03-17T04:48:30;5.10;99.90
46562;DHT22;32289;42.688;23.330;2024-03-17T04:52:12;5.10;99.90
46562;DHT22;32289;42.688;23.330;2024-03-17T04:56:03;5.00;99.90
46562;DHT22;32289;42.688;23.330;2024-03-17T04:59:45;5.10;99.90
46562;DHT22;32289;42.688;23.330;2024-03-17T05:03:25;5.10;99.90
46562;DHT22;32289;42.688;23.330;2024-03-17T05:07:06;5.00;99.90
46562;DHT22;32289;42.688;23.330;2024-03-17T05:10:47;5.00;99.90
46562;DHT22;32289;42.688;23.330;2024-03-17T05:14:27;5.00;99.90
46562;DHT22;32289;42.688;23.330;2024-03-17T05:18:08;5.20;99.90
46562;DHT22;32289;42.688;23.330;2024-03-17T05:21:49;5.80;99.90
46562;DHT22;32289;42.688;23.330;2024-03-17T05:25:30;6.50;99.90
46562;DHT22;32289;42.688;23.330;2024-03-17T05:29:13;6.30;99.90
46562;DHT22;32289;42.688;23.330;2024-03-17T05:32:53;6.70;99.90
46562;DHT22;32289;42.688;23.330;2024-03-17T05:36:34;6.60;99.90
46562;DHT22;32289;42.688;23.330;2024-03-17T05:40:15;6.20;99.90
46562;DHT22;32289;42.688;23.330;2024-03-17T05:43:56;6.20;99.90
46562;DHT22;32289;42.688;23.330;2024-03-17T05:47:38;6.00;99.90
46562;DHT22;32289;42.688;23.330;2024-03-17T05:51:19;6.00;99.90
46562;DHT22;32289;42.688;23.330;2024-03-17T05:55:00;6.20;99.90
46562;DHT22;32289;42.688;23.330;2024-03-17T05:58:41;6.40;99.90
46562;DHT22;32289;42.688;23.330;2024-03-17T06:02:22;6.50;99.90
46562;DHT22;32289;42.688;23.330;2024-03-17T06:06:04;6.60;99.90
46562;DHT22;32289;42.688;23.330;2024-03-17T06:09:45;6.70;99.90
46562;DHT22;32289;42.688;23.330;2024-03-17T06:13:27;6.90;99.90
46562;DHT22;32289;42.688;23.330;2024-03-17T06:17:08;6.90;99.90
46562;DHT22;32289;42.688;23.330;2024-03-17T06:20:49;7.00;99.90
46562;DHT22;32289;42.688;23.330;2024-03-17T06:24:30;7.10;99.90
46562;DHT22;32289;42.688;23.330;2024-03-17T06:28:16;6.90;99.90
46562;DHT22;32289;42.688;23.330;2024-03-17T06:31:57;7.40;99.90
46562;DHT22;32289;42.688;23.330;2024-03-17T06:35:38;7.70;99.90
46562;DHT22;32289;42.688;23.330;2024-03-17T06:39:18;9.80;99.90
46562;DHT22;32289;42.688;23.330;2024-03-17T06:43:01;10.20;99.90
46562;DHT22;32289;42.688;23.330;2024-03-17T06:46:42;9.90;99.60
46562;DHT22;32289;42.688;23.330;2024-03-17T06:50:24;10.70;95.80
46562;DHT22;32289;42.688;23.330;2024-03-17T06:54:05;10.90;92.40
46562;DHT22;32289;42.688;23.330;2024-03-17T06:57:45;10.40;95.60
46562;DHT22;32289;42.688;23.330;2024-03-17T07:01:26;8.80;99.90
46562;DHT22;32289;42.688;23.330;2024-03-17T07:05:10;9.80;99.90
46562;DHT22;32289;42.688;23.330;2024-03-17T07:08:53;12.20;89.80
46562;DHT22;32289;42.688;23.330;2024-03-17T07:12:33;12.40;79.80
46562;DHT22;32289;42.688;23.330;2024-03-17T07:16:14;14.70;73.30
46562;DHT22;32289;42.688;23.330;2024-03-17T07:19:54;14.60;66.90
46562;DHT22;32289;42.688;23.330;2024-03-17T07:23:36;13.20;72.00
46562;DHT22;32289;42.688;23.330;2024-03-17T07:27:17;11.90;79.00
46562;DHT22;32289;42.688;23.330;2024-03-17T07:30:59;11.20;86.80
46562;DHT22;32289;42.688;23.330;2024-03-17T07:34:42;11.10;86.90
46562;DHT22;32289;42.688;23.330;2024-03-17T07:38:24;10.30;92.70
46562;DHT22;32289;42.688;23.330;2024-03-17T07:42:07;9.90;95.30
46562;DHT22;32289;42.688;23.330;2024-03-17T07:45:48;9.50;97.40
46562;DHT22;32289;42.688;23.330;2024-03-17T07:49:36;9.70;98.20
46562;DHT22;32289;42.688;23.330;2024-03-17T07:53:18;9.60;98.50
46562;DHT22;32289;42.688;23.330;2024-03-17T07:56:59;9.60;98.90
46562;DHT22;32289;42.688;23.330;2024-03-17T08:00:40;9.80;98.10
46562;DHT22;32289;42.688;23.330;2024-03-17T08:04:20;10.00;97.90
46562;DHT22;32289;42.688;23.330;2024-03-17T08:08:01;10.30;96.20
46562;DHT22;32289;42.688;23.330;2024-03-17T08:11:42;10.20;95.40
46562;DHT22;32289;42.688;23.330;2024-03-17T08:15:26;10.00;96.80
46562;DHT22;32289;42.688;23.330;2024-03-17T08:19:07;10.50;94.90
46562;DHT22;32289;42.688;23.330;2024-03-17T08:22:49;10.70;94.60
46562;DHT22;32289;42.688;23.330;2024-03-17T08:26:30;10.90;92.80
46562;DHT22;32289;42.688;23.330;2024-03-17T08:30:11;11.60;90.80
46562;DHT22;32289;42.688;23.330;2024-03-17T08:33:53;10.80;91.80
46562;DHT22;32289;42.688;23.330;2024-03-17T08:37:36;11.90;88.30
46562;DHT22;32289;42.688;23.330;2024-03-17T08:41:17;12.50;80.00
46562;DHT22;32289;42.688;23.330;2024-03-17T08:44:58;13.20;77.00
46562;DHT22;32289;42.688;23.330;2024-03-17T08:48:39;13.80;71.00
46562;DHT22;32289;42.688;23.330;2024-03-17T08:52:20;15.10;66.00
46562;DHT22;32289;42.688;23.330;2024-03-17T08:56:03;16.00;61.20
46562;DHT22;32289;42.688;23.330;2024-03-17T08:59:47;16.40;58.50
46562;DHT22;32289;42.688;23.330;2024-03-17T09:03:28;16.00;59.50
46562;DHT22;32289;42.688;23.330;2024-03-17T09:07:09;15.90;59.70
46562;DHT22;32289;42.688;23.330;2024-03-17T09:10:53;17.10;57.20
46562;DHT22;32289;42.688;23.330;2024-03-17T09:14:34;17.80;56.70
46562;DHT22;32289;42.688;23.330;2024-03-17T09:18:16;17.30;56.40
46562;DHT22;32289;42.688;23.330;2024-03-17T09:21:57;19.20;53.10
46562;DHT22;32289;42.688;23.330;2024-03-17T09:25:38;18.10;53.40
46562;DHT22;32289;42.688;23.330;2024-03-17T09:29:18;19.00;52.10
46562;DHT22;32289;42.688;23.330;2024-03-17T09:32:59;17.90;53.50
46562;DHT22;32289;42.688;23.330;2024-03-17T09:36:40;17.50;54.50
46562;DHT22;32289;42.688;23.330;2024-03-17T09:40:21;17.10;54.30
46562;DHT22;32289;42.688;23.330;2024-03-17T09:44:05;17.20;54.40
46562;DHT22;32289;42.688;23.330;2024-03-17T09:47:46;17.00;53.60
46562;DHT22;32289;42.688;23.330;2024-03-17T09:51:27;17.10;53.50
46562;DHT22;32289;42.688;23.330;2024-03-17T09:55:09;16.40;55.60
46562;DHT22;32289;42.688;23.330;2024-03-17T09:58:51;15.90;55.30
46562;DHT22;32289;42.688;23.330;2024-03-17T10:02:32;15.80;53.90
46562;DHT22;32289;42.688;23.330;2024-03-17T10:06:14;16.20;53.40
46562;DHT22;32289;42.688;23.330;2024-03-17T10:10:11;15.90;52.80
46562;DHT22;32289;42.688;23.330;2024-03-17T10:14:04;15.70;54.20
46562;DHT22;32289;42.688;23.330;2024-03-17T10:17:45;16.20;53.00
46562;DHT22;32289;42.688;23.330;2024-03-17T10:21:27;16.30;51.00
46562;DHT22;32289;42.688;23.330;2024-03-17T10:25:09;16.00;52.30
46562;DHT22;32289;42.688;23.330;2024-03-17T10:28:50;15.50;52.70
46562;DHT22;32289;42.688;23.330;2024-03-17T10:32:33;15.10;54.20
46562;DHT22;32289;42.688;23.330;2024-03-17T10:36:17;16.10;51.20
46562;DHT22;32289;42.688;23.330;2024-03-17T10:39:59;15.90;50.20
46562;DHT22;32289;42.688;23.330;2024-03-17T10:43:40;15.80;49.00
46562;DHT22;32289;42.688;23.330;2024-03-17T10:47:23;15.60;48.90
46562;DHT22;32289;42.688;23.330;2024-03-17T10:51:04;15.80;46.40
46562;DHT22;32289;42.688;23.330;2024-03-17T10:54:48;15.70;47.10
46562;DHT22;32289;42.688;23.330;2024-03-17T10:58:45;15.40;49.60
46562;DHT22;32289;42.688;23.330;2024-03-17T11:02:33;14.90;51.10
46562;DHT22;32289;42.688;23.330;2024-03-17T11:06:13;15.50;49.80
46562;DHT22;32289;42.688;23.330;2024-03-17T11:09:56;15.60;48.30
46562;DHT22;32289;42.688;23.330;2024-03-17T11:13:37;15.70;49.00
46562;DHT22;32289;42.688;23.330;2024-03-17T11:17:19;15.30;51.10
46562;DHT22;32289;42.688;23.330;2024-03-17T11:21:18;15.90;51.60
46562;DHT22;32289;42.688;23.330;2024-03-17T11:29:26;16.30;51.90
46562;DHT22;32289;42.688;23.330;2024-03-17T11:37:42;16.90;50.30
46562;DHT22;32289;42.688;23.330;2024-03-17T11:41:42;17.40;46.90
46562;DHT22;32289;42.688;23.330;2024-03-17T11:45:23;18.20;45.10
46562;DHT22;32289;42.688;23.330;2024-03-17T11:49:04;18.90;44.90
46562;DHT22;32289;42.688;23.330;2024-03-17T11:52:45;18.50;45.30
46562;DHT22;32289;42.688;23.330;2024-03-17T11:56:30;18.70;44.50
46562;DHT22;32289;42.688;23.330;2024-03-17T12:00:22;18.10;46.30
46562;DHT22;32289;42.688;23.330;2024-03-17T12:04:07;18.00;46.30
46562;DHT22;32289;42.688;23.330;2024-03-17T12:07:48;17.40;46.00
46562;DHT22;32289;42.688;23.330;2024-03-17T12:11:28;16.90;47.90
46562;DHT22;32289;42.688;23.330;2024-03-17T12:15:17;16.80;46.90
46562;DHT22;32289;42.688;23.330;2024-03-17T12:19:09;16.90;46.80
46562;DHT22;32289;42.688;23.330;2024-03-17T12:22:50;16.60;47.20
46562;DHT22;32289;42.688;23.330;2024-03-17T12:26:32;17.00;47.60
46562;DHT22;32289;42.688;23.330;2024-03-17T12:30:16;16.20;49.20
46562;DHT22;32289;42.688;23.330;2024-03-17T12:33:58;16.50;50.20
46562;DHT22;32289;42.688;23.330;2024-03-17T12:37:39;15.70;52.10
46562;DHT22;32289;42.688;23.330;2024-03-17T12:41:21;15.70;52.50
46562;DHT22;32289;42.688;23.330;2024-03-17T12:45:03;15.90;52.70
46562;DHT22;32289;42.688;23.330;2024-03-17T12:48:46;15.80;53.00
46562;DHT22;32289;42.688;23.330;2024-03-17T12:52:32;16.10;55.10
46562;DHT22;32289;42.688;23.330;2024-03-17T12:56:22;16.00;55.30
46562;DHT22;32289;42.688;23.330;2024-03-17T13:00:23;15.30;56.50
46562;DHT22;32289;42.688;23.330;2024-03-17T13:04:13;15.80;57.00
46562;DHT22;32289;42.688;23.330;2024-03-17T13:07:55;15.10;58.00
46562;DHT22;32289;42.688;23.330;2024-03-17T13:11:38;15.30;58.10
46562;DHT22;32289;42.688;23.330;2024-03-17T13:15:18;15.40;57.70
46562;DHT22;32289;42.688;23.330;2024-03-17T13:18:59;15.10;58.00
46562;DHT22;32289;42.688;23.330;2024-03-17T13:22:42;15.40;58.20
46562;DHT22;32289;42.688;23.330;2024-03-17T13:26:24;15.50;58.80
46562;DHT22;32289;42.688;23.330;2024-03-17T13:30:05;15.10;60.10
46562;DHT22;32289;42.688;23.330;2024-03-17T13:33:46;15.00;59.50
46562;DHT22;32289;42.688;23.330;2024-03-17T13:37:28;14.60;60.80
46562;DHT22;32289;42.688;23.330;2024-03-17T13:41:08;14.40;61.50
46562;DHT22;32289;42.688;23.330;2024-03-17T13:44:49;14.40;61.70
46562;DHT22;32289;42.688;23.330;2024-03-17T13:48:30;14.50;61.50
46562;DHT22;32289;42.688;23.330;2024-03-17T13:52:12;14.40;61.20
46562;DHT22;32289;42.688;23.330;2024-03-17T13:55:53;14.00;62.60
46562;DHT22;32289;42.688;23.330;2024-03-17T13:59:33;14.00;64.00
46562;DHT22;32289;42.688;23.330;2024-03-17T14:03:14;14.40;64.40
46562;DHT22;32289;42.688;23.330;2024-03-17T14:06:55;14.30;64.90
46562;DHT22;32289;42.688;23.330;2024-03-17T14:10:36;14.10;65.60
46562;DHT22;32289;42.688;23.330;2024-03-17T14:14:16;14.10;65.90
46562;DHT22;32289;42.688;23.330;2024-03-17T14:17:57;14.00;66.20
46562;DHT22;32289;42.688;23.330;2024-03-17T14:21:38;13.70;66.90
46562;DHT22;32289;42.688;23.330;2024-03-17T14:25:19;13.70;68.00
46562;DHT22;32289;42.688;23.330;2024-03-17T14:29:02;13.60;68.90
46562;DHT22;32289;42.688;23.330;2024-03-17T14:32:43;13.70;69.10
46562;DHT22;32289;42.688;23.330;2024-03-17T14:36:24;13.60;69.30
46562;DHT22;32289;42.688;23.330;2024-03-17T14:40:08;13.70;69.70
46562;DHT22;32289;42.688;23.330;2024-03-17T14:43:56;13.80;69.00
46562;DHT22;32289;42.688;23.330;2024-03-17T14:47:40;13.80;69.80
46562;DHT22;32289;42.688;23.330;2024-03-17T14:51:21;13.90;69.40
46562;DHT22;32289;42.688;23.330;2024-03-17T14:55:02;13.90;69.30
46562;DHT22;32289;42.688;23.330;2024-03-17T14:58:44;13.90;69.80
46562;DHT22;32289;42.688;23.330;2024-03-17T15:02:26;13.80;71.30
46562;DHT22;32289;42.688;23.330;2024-03-17T15:06:12;13.80;73.00
46562;DHT22;32289;42.688;23.330;2024-03-17T15:09:53;13.60;76.00
46562;DHT22;32289;42.688;23.330;2024-03-17T15:13:34;13.40;79.20
46562;DHT22;32289;42.688;23.330;2024-03-17T15:17:15;13.60;78.40
46562;DHT22;32289;42.688;23.330;2024-03-17T15:20:56;13.70;78.00
46562;DHT22;32289;42.688;23.330;2024-03-17T15:24:37;13.50;78.20
46562;DHT22;32289;42.688;23.330;2024-03-17T15:28:18;13.60;77.90
46562;DHT22;32289;42.688;23.330;2024-03-17T15:31:59;13.40;77.20
46562;DHT22;32289;42.688;23.330;2024-03-17T15:35:39;13.50;78.40
46562;DHT22;32289;42.688;23.330;2024-03-17T15:39:23;13.30;79.30
46562;DHT22;32289;42.688;23.330;2024-03-17T15:43:04;13.20;79.30
46562;DHT22;32289;42.688;23.330;2024-03-17T15:46:45;13.10;78.30
46562;DHT22;32289;42.688;23.330;2024-03-17T15:50:25;13.30;77.70
46562;DHT22;32289;42.688;23.330;2024-03-17T15:54:06;13.10;77.70
46562;DHT22;32289;42.688;23.330;2024-03-17T15:57:47;13.10;78.70
46562;DHT22;32289;42.688;23.330;2024-03-17T16:01:28;13.00;79.10
46562;DHT22;32289;42.688;23.330;2024-03-17T16:05:09;12.90;80.30
46562;DHT22;32289;42.688;23.330;2024-03-17T16:08:52;13.00;80.80
46562;DHT22;32289;42.688;23.330;2024-03-17T16:12:35;13.00;81.50
46562;DHT22;32289;42.688;23.330;2024-03-17T16:16:17;13.00;82.90
46562;DHT22;32289;42.688;23.330;2024-03-17T16:19:58;12.90;84.90
46562;DHT22;32289;42.688;23.330;2024-03-17T16:23:43;13.00;86.00
46562;DHT22;32289;42.688;23.330;2024-03-17T16:27:25;12.80;87.30
46562;DHT22;32289;42.688;23.330;2024-03-17T16:31:05;12.80;88.30
46562;DHT22;32289;42.688;23.330;2024-03-17T16:34:47;12.70;89.40
46562;DHT22;32289;42.688;23.330;2024-03-17T16:38:27;12.70;90.20
46562;DHT22;32289;42.688;23.330;2024-03-17T16:42:11;12.60;90.80
46562;DHT22;32289;42.688;23.330;2024-03-17T16:46:03;12.60;91.30
46562;DHT22;32289;42.688;23.330;2024-03-17T16:49:44;12.60;91.80
46562;DHT22;32289;42.688;23.330;2024-03-17T16:53:25;12.70;91.80
46562;DHT22;32289;42.688;23.330;2024-03-17T16:57:05;12.60;92.10
46562;DHT22;32289;42.688;23.330;2024-03-17T17:00:46;12.50;92.80
46562;DHT22;32289;42.688;23.330;2024-03-17T17:04:27;12.60;92.60
46562;DHT22;32289;42.688;23.330;2024-03-17T17:08:08;12.50;93.10
46562;DHT22;32289;42.688;23.330;2024-03-17T17:11:49;12.50;93.40
46562;DHT22;32289;42.688;23.330;2024-03-17T17:15:33;12.20;94.20
46562;DHT22;32289;42.688;23.330;2024-03-17T17:19:14;12.10;95.70
46562;DHT22;32289;42.688;23.330;2024-03-17T17:22:56;12.00;96.70
46562;DHT22;32289;42.688;23.330;2024-03-17T17:26:37;12.10;97.40
46562;DHT22;32289;42.688;23.330;2024-03-17T17:30:18;12.00;97.80
46562;DHT22;32289;42.688;23.330;2024-03-17T17:33:59;12.00;99.00
46562;DHT22;32289;42.688;23.330;2024-03-17T17:37:43;11.90;99.20
46562;DHT22;32289;42.688;23.330;2024-03-17T17:41:24;11.80;99.90
46562;DHT22;32289;42.688;23.330;2024-03-17T17:45:05;11.70;99.90
46562;DHT22;32289;42.688;23.330;2024-03-17T17:48:48;11.60;99.90
46562;DHT22;32289;42.688;23.330;2024-03-17T17:52:29;11.50;99.90
46562;DHT22;32289;42.688;23.330;2024-03-17T17:56:14;11.40;99.90
46562;DHT22;32289;42.688;23.330;2024-03-17T17:59:55;11.30;99.90
46562;DHT22;32289;42.688;23.330;2024-03-17T18:03:36;11.30;99.90
46562;DHT22;32289;42.688;23.330;2024-03-17T18:07:16;11.30;99.90
46562;DHT22;32289;42.688;23.330;2024-03-17T18:10:57;11.10;99.90
46562;DHT22;32289;42.688;23.330;2024-03-17T18:14:38;11.10;99.90
46562;DHT22;32289;42.688;23.330;2024-03-17T18:18:19;11.20;99.90
46562;DHT22;32289;42.688;23.330;2024-03-17T18:22:00;11.10;99.90
46562;DHT22;32289;42.688;23.330;2024-03-17T18:25:40;11.10;99.90
46562;DHT22;32289;42.688;23.330;2024-03-17T18:29:21;11.00;99.90
46562;DHT22;32289;42.688;23.330;2024-03-17T18:33:02;11.00;99.90
46562;DHT22;32289;42.688;23.330;2024-03-17T18:36:43;11.00;99.90
46562;DHT22;32289;42.688;23.330;2024-03-17T18:40:24;11.00;99.90
46562;DHT22;32289;42.688;23.330;2024-03-17T18:44:05;10.90;99.90
46562;DHT22;32289;42.688;23.330;2024-03-17T18:47:46;11.00;99.90
46562;DHT22;32289;42.688;23.330;2024-03-17T18:51:27;11.00;99.90
46562;DHT22;32289;42.688;23.330;2024-03-17T18:55:08;10.90;99.90
46562;DHT22;32289;42.688;23.330;2024-03-17T18:58:49;10.70;99.90
46562;DHT22;32289;42.688;23.330;2024-03-17T19:02:30;10.80;99.90
46562;DHT22;32289;42.688;23.330;2024-03-17T19:06:14;10.80;99.90
46562;DHT22;32289;42.688;23.330;2024-03-17T19:09:56;10.70;99.90
46562;DHT22;32289;42.688;23.330;2024-03-17T19:13:37;10.70;99.90
46562;DHT22;32289;42.688;23.330;2024-03-17T19:17:18;10.60;99.90
46562;DHT22;32289;42.688;23.330;2024-03-17T19:24:45;10.60;99.90
46562;DHT22;32289;42.688;23.330;2024-03-17T19:28:26;10.50;99.90
46562;DHT22;32289;42.688;23.330;2024-03-17T19:32:06;10.50;99.90
46562;DHT22;32289;42.688;23.330;2024-03-17T19:35:57;10.50;99.90
46562;DHT22;32289;42.688;23.330;2024-03-17T19:39:38;10.50;99.90
46562;DHT22;32289;42.688;23.330;2024-03-17T19:43:19;10.50;99.90
46562;DHT22;32289;42.688;23.330;2024-03-17T19:47:00;10.50;99.90
46562;DHT22;32289;42.688;23.330;2024-03-17T19:50:42;10.60;99.90
46562;DHT22;32289;42.688;23.330;2024-03-17T19:54:22;10.40;99.90
46562;DHT22;32289;42.688;23.330;2024-03-17T19:58:03;10.30;99.90
46562;DHT22;32289;42.688;23.330;2024-03-17T20:01:44;10.40;99.90
46562;DHT22;32289;42.688;23.330;2024-03-17T20:05:25;10.20;99.90
46562;DHT22;32289;42.688;23.330;2024-03-17T20:09:06;10.10;99.90
46562;DHT22;32289;42.688;23.330;2024-03-17T20:12:47;10.00;99.90
46562;DHT22;32289;42.688;23.330;2024-03-17T20:16:29;10.00;99.90
46562;DHT22;32289;42.688;23.330;2024-03-17T20:20:14;9.90;99.90
46562;DHT22;32289;42.688;23.330;2024-03-17T20:23:55;9.90;99.90
46562;DHT22;32289;42.688;23.330;2024-03-17T20:27:37;9.80;99.90
46562;DHT22;32289;42.688;23.330;2024-03-17T20:31:20;9.80;99.90
46562;DHT22;32289;42.688;23.330;2024-03-17T20:35:04;9.70;99.90
46562;DHT22;32289;42.688;23.330;2024-03-17T20:38:45;9.70;99.90
46562;DHT22;32289;42.688;23.330;2024-03-17T20:42:26;9.60;99.90
46562;DHT22;32289;42.688;23.330;2024-03-17T20:46:07;9.60;99.90
46562;DHT22;32289;42.688;23.330;2024-03-17T20:49:51;9.60;99.90
46562;DHT22;32289;42.688;23.330;2024-03-17T20:53:35;9.50;99.90
46562;DHT22;32289;42.688;23.330;2024-03-17T20:57:18;9.50;99.90
46562;DHT22;32289;42.688;23.330;2024-03-17T21:00:59;9.40;99.90
46562;DHT22;32289;42.688;23.330;2024-03-17T21:04:40;9.40;99.90
46562;DHT22;32289;42.688;23.330;2024-03-17T21:08:20;9.40;99.90
46562;DHT22;32289;42.688;23.330;2024-03-17T21:12:02;9.40;99.90
46562;DHT22;32289;42.688;23.330;2024-03-17T21:15:44;9.20;99.90
46562;DHT22;32289;42.688;23.330;2024-03-17T21:19:27;9.30;99.90
46562;DHT22;32289;42.688;23.330;2024-03-17T21:23:08;9.20;99.90
46562;DHT22;32289;42.688;23.330;2024-03-17T21:26:49;9.20;99.90
46562;DHT22;32289;42.688;23.330;2024-03-17T21:30:30;9.10;99.90
46562;DHT22;32289;42.688;23.330;2024-03-17T21:34:11;9.00;99.90
46562;DHT22;32289;42.688;23.330;2024-03-17T21:37:51;9.00;99.90
46562;DHT22;32289;42.688;23.330;2024-03-17T21:41:32;9.00;99.90
46562;DHT22;32289;42.688;23.330;2024-03-17T21:45:13;9.00;99.90
46562;DHT22;32289;42.688;23.330;2024-03-17T21:48:54;8.90;99.90
46562;DHT22;32289;42.688;23.330;2024-03-17T21:52:34;8.90;99.90
46562;DHT22;32289;42.688;23.330;2024-03-17T21:56:15;8.90;99.90
46562;DHT22;32289;42.688;23.330;2024-03-17T21:59:56;8.80;99.90
46562;DHT22;32289;42.688;23.330;2024-03-17T22:03:37;8.70;99.90
46562;DHT22;32289;42.688;23.330;2024-03-17T22:07:19;8.70;99.90
46562;DHT22;32289;42.688;23.330;2024-03-17T22:11:00;8.80;99.90
46562;DHT22;32289;42.688;23.330;2024-03-17T22:14:40;8.70;99.90
46562;DHT22;32289;42.688;23.330;2024-03-17T22:18:25;8.70;99.90
46562;DHT22;32289;42.688;23.330;2024-03-17T22:22:06;8.80;99.90
46562;DHT22;32289;42.688;23.330;2024-03-17T22:25:57;8.80;99.90
46562;DHT22;32289;42.688;23.330;2024-03-17T22:29:39;8.70;99.90
46562;DHT22;32289;42.688;23.330;2024-03-17T22:33:24;8.60;99.90
46562;DHT22;32289;42.688;23.330;2024-03-17T22:37:05;8.50;99.90
46562;DHT22;32289;42.688;23.330;2024-03-17T22:44:35;8.10;99.90
46562;DHT22;32289;42.688;23.330;2024-03-17T22:48:18;7.80;99.90
46562;DHT22;32289;42.688;23.330;2024-03-17T22:51:58;7.80;99.90
46562;DHT22;32289;42.688;23.330;2024-03-17T22:55:46;7.70;99.90
46562;DHT22;32289;42.688;23.330;2024-03-17T22:59:27;7.90;99.90
46562;DHT22;32289;42.688;23.330;2024-03-17T23:03:11;7.70;99.90
46562;DHT22;32289;42.688;23.330;2024-03-17T23:06:52;7.70;99.90
46562;DHT22;32289;42.688;23.330;2024-03-17T23:10:33;7.60;99.90
46562;DHT22;32289;42.688;23.330;2024-03-17T23:14:14;7.70;99.90
46562;DHT22;32289;42.688;23.330;2024-03-17T23:17:54;7.50;99.90
46562;DHT22;32289;42.688;23.330;2024-03-17T23:21:35;7.50;99.90
46562;DHT22;32289;42.688;23.330;2024-03-17T23:25:16;7.30;99.90